createdAt,value
2023-01-17T00:02:08.826Z,20.90
2023-01-17T00:04:54.311Z,20.80
2023-01-17T00:07:41.413Z,20.33
2023-01-17T00:10:12.196Z,21.30
2023-01-17T00:12:46.740Z,19.57
2023-01-17T00:15:14.754Z,19.70
2023-01-17T00:17:42.733Z,19.97
2023-01-17T00:20:32.575Z,20.23
2023-01-17T00:23:18.105Z,20.13
2023-01-17T00:26:04.212Z,20.27
2023-01-17T00:28:34.417Z,21.10
2023-01-17T00:31:01.655Z,21.20
2023-01-17T00:33:28.889Z,20.37
2023-01-17T00:35:57.659Z,20.43
2023-01-17T00:38:26.295Z,18.57
2023-01-17T00:40:53.529Z,18.80
2023-01-17T00:43:41.507Z,16.73
2023-01-17T00:46:28.563Z,16.97
2023-01-17T00:49:13.780Z,17.43
2023-01-17T00:51:59.468Z,18.03
2023-01-17T00:54:45.039Z,18.53
2023-01-17T00:57:30.464Z,17.87
2023-01-17T01:00:16.104Z,18.30
2023-01-17T01:03:03.067Z,17.13
2023-01-17T01:05:48.595Z,16.73
2023-01-17T01:08:40.484Z,16.13
2023-01-17T01:11:28.509Z,17.10
2023-01-17T01:14:14.882Z,17.40
2023-01-17T01:17:00.616Z,16.90
2023-01-17T01:19:47.342Z,17.13
2023-01-17T01:22:32.853Z,17.00
2023-01-17T01:25:18.325Z,16.53
2023-01-17T01:28:03.665Z,16.30
2023-01-17T01:30:49.277Z,16.40
2023-01-17T01:33:18.937Z,17.40
2023-01-17T01:35:49.495Z,16.67
2023-01-17T01:38:18.082Z,17.27
2023-01-17T01:40:48.379Z,17.07
2023-01-17T01:43:19.713Z,17.20
2023-01-17T01:45:51.311Z,18.67
2023-01-17T01:48:34.632Z,17.27
2023-01-17T01:51:07.104Z,18.10
2023-01-17T01:53:38.067Z,18.93
2023-01-17T01:56:09.815Z,18.33
2023-01-17T01:58:39.079Z,19.40
2023-01-17T02:01:09.474Z,18.23
2023-01-17T02:03:40.855Z,18.70
2023-01-17T02:06:21.710Z,17.70
2023-01-17T02:08:50.331Z,18.30
2023-01-17T02:11:18.570Z,18.57
2023-01-17T02:13:46.593Z,18.73
2023-01-17T02:16:26.635Z,17.90
2023-01-17T02:19:01.145Z,18.50
2023-01-17T02:21:35.221Z,18.10
2023-01-17T02:24:40.927Z,17.17
2023-01-17T02:27:17.222Z,17.73
2023-01-17T02:30:14.881Z,14.67
2023-01-17T02:32:54.086Z,13.87
2023-01-17T02:35:30.936Z,13.77
2023-01-17T02:38:07.579Z,14.23
2023-01-17T02:40:40.545Z,12.60
2023-01-17T02:43:11.743Z,12.67
2023-01-17T02:45:39.823Z,11.13
2023-01-17T02:48:11.970Z,10.40
2023-01-17T02:50:59.100Z,10.23
2023-01-17T02:53:36.892Z,9.80
2023-01-17T02:56:13.127Z,10.17
2023-01-17T02:58:58.495Z,10.63
2023-01-17T03:01:31.755Z,10.47
2023-01-17T03:04:05.688Z,9.97
2023-01-17T03:06:37.691Z,9.77
2023-01-17T03:09:06.616Z,9.97
2023-01-17T03:11:35.019Z,9.33
2023-01-17T03:14:03.252Z,10.00
2023-01-17T03:16:34.150Z,9.70
2023-01-17T03:19:03.625Z,9.63
2023-01-17T03:21:31.713Z,8.77
2023-01-17T03:23:59.749Z,9.53
2023-01-17T03:26:27.983Z,9.33
2023-01-17T03:28:55.951Z,9.43
2023-01-17T03:31:23.889Z,9.43
2023-01-17T03:33:51.975Z,9.53
2023-01-17T03:36:21.293Z,9.47
2023-01-17T03:38:49.263Z,10.13
2023-01-17T03:41:17.273Z,9.20
2023-01-17T03:43:45.244Z,9.67
2023-01-17T03:46:20.729Z,9.77
2023-01-17T03:48:48.794Z,10.13
2023-01-17T03:51:17.188Z,10.23
2023-01-17T03:53:47.374Z,10.00
2023-01-17T03:56:15.702Z,10.40
2023-01-17T03:58:43.862Z,10.83
2023-01-17T04:01:12.328Z,10.27
2023-01-17T04:03:40.600Z,10.73
2023-01-17T04:06:08.867Z,10.70
2023-01-17T04:08:36.848Z,10.83
2023-01-17T04:11:06.417Z,11.83
2023-01-17T04:13:34.616Z,10.93
2023-01-17T04:16:02.610Z,9.97
2023-01-17T04:18:30.576Z,10.83
2023-01-17T04:20:58.575Z,10.23
2023-01-17T04:23:26.646Z,10.73
2023-01-17T04:25:54.631Z,10.27
2023-01-17T04:28:23.948Z,10.87
2023-01-17T04:30:51.941Z,11.67
2023-01-17T04:33:20.010Z,10.83
2023-01-17T04:35:48.020Z,10.90
2023-01-17T04:38:15.974Z,10.70
2023-01-17T04:40:43.946Z,11.60
2023-01-17T04:43:11.940Z,11.37
2023-01-17T04:45:41.308Z,12.17
2023-01-17T04:48:12.590Z,11.73
2023-01-17T04:50:41.000Z,11.70
2023-01-17T04:53:08.974Z,11.60
2023-01-17T04:55:36.937Z,11.77
2023-01-17T04:58:04.985Z,11.97
2023-01-17T05:00:33.009Z,11.63
2023-01-17T05:03:02.404Z,12.90
2023-01-17T05:05:30.943Z,12.33
2023-01-17T05:07:59.759Z,12.13
2023-01-17T05:10:27.941Z,12.63
2023-01-17T05:12:56.788Z,12.53
2023-01-17T05:15:26.079Z,12.50
2023-01-17T05:17:55.146Z,12.00
2023-01-17T05:20:26.979Z,12.70
2023-01-17T05:22:56.461Z,12.43
2023-01-17T05:25:24.567Z,12.73
2023-01-17T05:27:52.650Z,13.93
2023-01-17T05:30:21.772Z,13.60
2023-01-17T05:32:50.516Z,13.70
2023-01-17T05:35:19.722Z,14.90
2023-01-17T05:37:50.008Z,14.20
2023-01-17T05:40:18.701Z,13.60
2023-01-17T05:42:47.694Z,13.07
2023-01-17T05:45:17.703Z,13.20
2023-01-17T05:47:46.334Z,13.60
2023-01-17T05:50:15.915Z,14.50
2023-01-17T05:52:52.063Z,14.23
2023-01-17T05:55:20.774Z,14.20
2023-01-17T05:57:48.912Z,14.63
2023-01-17T06:00:17.445Z,14.90
2023-01-17T06:02:46.185Z,13.83
2023-01-17T06:05:14.640Z,13.77
2023-01-17T06:07:44.827Z,14.53
2023-01-17T06:10:15.413Z,15.70
2023-01-17T06:12:44.332Z,15.13
2023-01-17T06:15:13.072Z,14.60
2023-01-17T06:17:41.048Z,16.67
2023-01-17T06:20:11.336Z,18.20
2023-01-17T06:22:39.364Z,18.37
2023-01-17T06:25:08.026Z,18.10
2023-01-17T06:27:37.725Z,17.90
2023-01-17T06:30:06.773Z,16.07
2023-01-17T06:32:34.786Z,17.53
2023-01-17T06:35:02.792Z,14.70
2023-01-17T06:37:30.774Z,15.07
2023-01-17T06:39:58.766Z,15.57
2023-01-17T06:42:26.720Z,14.27
2023-01-17T06:44:56.079Z,14.87
2023-01-17T06:47:24.112Z,13.63
2023-01-17T06:49:52.117Z,14.57
2023-01-17T06:52:20.074Z,13.87
2023-01-17T06:54:48.073Z,13.77
2023-01-17T06:57:16.037Z,15.17
2023-01-17T06:59:43.992Z,16.77
2023-01-17T07:02:13.537Z,17.70
2023-01-17T07:04:41.517Z,16.70
2023-01-17T07:07:09.563Z,16.90
2023-01-17T07:09:37.585Z,15.87
2023-01-17T07:12:05.744Z,16.40
2023-01-17T07:14:33.986Z,16.20
2023-01-17T07:17:01.950Z,16.83
2023-01-17T07:19:31.304Z,17.37
2023-01-17T07:21:59.262Z,17.23
2023-01-17T07:24:27.227Z,17.00
2023-01-17T07:26:55.250Z,17.63
2023-01-17T07:29:23.220Z,16.00
2023-01-17T07:31:51.197Z,15.93
2023-01-17T07:34:19.151Z,14.80
2023-01-17T07:36:49.779Z,15.70
2023-01-17T07:39:17.835Z,15.43
2023-01-17T07:41:47.107Z,15.03
2023-01-17T07:44:15.509Z,15.60
2023-01-17T07:46:43.628Z,14.83
2023-01-17T07:49:11.792Z,15.80
2023-01-17T07:51:39.773Z,15.27
2023-01-17T07:54:09.120Z,15.63
2023-01-17T07:56:37.093Z,17.43
2023-01-17T07:59:05.045Z,17.33
2023-01-17T08:01:33.106Z,17.40
2023-01-17T08:04:01.161Z,16.60
2023-01-17T08:06:29.952Z,17.37
2023-01-17T08:08:59.524Z,17.77
2023-01-17T08:11:28.871Z,18.30
2023-01-17T08:13:59.359Z,18.47
2023-01-17T08:16:29.746Z,18.80
2023-01-17T08:18:58.209Z,19.43
2023-01-17T08:21:26.193Z,21.87
2023-01-17T08:23:54.304Z,24.93
2023-01-17T08:26:23.564Z,23.47
2023-01-17T08:28:56.259Z,20.90
2023-01-17T08:31:27.052Z,19.80
2023-01-17T08:33:55.068Z,18.47
2023-01-17T08:36:25.695Z,18.27
2023-01-17T08:38:53.812Z,18.23
2023-01-17T08:41:22.090Z,20.27
2023-01-17T08:43:50.482Z,17.33
2023-01-17T08:46:20.253Z,15.53
2023-01-17T08:48:48.233Z,15.97
2023-01-17T08:51:16.262Z,13.80
2023-01-17T08:53:44.214Z,13.57
2023-01-17T08:56:12.265Z,13.40
2023-01-17T08:58:41.517Z,13.47
2023-01-17T09:01:09.632Z,13.43
2023-01-17T09:03:40.893Z,13.30
2023-01-17T09:06:10.365Z,13.17
2023-01-17T09:08:39.397Z,12.60
2023-01-17T09:11:08.477Z,12.40
2023-01-17T09:13:36.686Z,14.07
2023-01-17T09:16:05.927Z,13.87
2023-01-17T09:18:34.965Z,13.67
2023-01-17T09:21:12.549Z,12.90
2023-01-17T09:23:40.540Z,13.63
2023-01-17T09:26:08.852Z,12.57
2023-01-17T09:28:41.079Z,12.73
2023-01-17T09:31:09.396Z,12.27
2023-01-17T09:33:37.648Z,12.33
2023-01-17T09:36:06.228Z,11.53
2023-01-17T09:38:35.648Z,11.73
2023-01-17T09:41:04.530Z,12.00
2023-01-17T09:43:41.464Z,11.37
2023-01-17T09:46:22.463Z,12.23
2023-01-17T09:48:51.939Z,12.10
2023-01-17T09:51:24.217Z,12.00
2023-01-17T09:53:54.246Z,12.13
2023-01-17T09:56:29.801Z,11.50
2023-01-17T09:59:19.213Z,11.80
2023-01-17T10:01:56.255Z,12.00
2023-01-17T10:04:49.148Z,11.20
2023-01-17T10:07:28.428Z,10.57
2023-01-17T10:10:27.237Z,10.97
2023-01-17T10:13:00.201Z,11.87
2023-01-17T10:15:54.660Z,11.30
2023-01-17T10:18:44.240Z,10.53
2023-01-17T10:21:17.845Z,10.87
2023-01-17T10:24:03.645Z,10.33
2023-01-17T10:26:35.201Z,10.23
2023-01-17T10:29:06.695Z,10.43
2023-01-17T10:31:41.656Z,9.57
2023-01-17T10:34:16.283Z,9.63
2023-01-17T10:36:48.805Z,10.37
2023-01-17T10:39:22.052Z,9.70
2023-01-17T10:41:56.881Z,10.43
2023-01-17T10:44:31.201Z,10.97
2023-01-17T10:47:08.012Z,12.87
2023-01-17T10:49:37.272Z,12.70
2023-01-17T10:52:16.860Z,12.37
2023-01-17T10:55:06.491Z,13.10
2023-01-17T10:57:42.040Z,11.40
2023-01-17T11:00:29.287Z,11.07
2023-01-17T11:02:57.488Z,11.30
2023-01-17T11:05:28.778Z,10.30
2023-01-17T11:08:01.694Z,10.57
2023-01-17T11:10:40.333Z,10.73
2023-01-17T11:13:24.750Z,11.17
2023-01-17T11:15:57.548Z,12.50
2023-01-17T11:18:28.725Z,13.73
2023-01-17T11:21:12.246Z,12.27
2023-01-17T11:23:42.412Z,11.80
2023-01-17T11:26:13.401Z,9.87
2023-01-17T11:28:42.969Z,9.47
2023-01-17T11:31:26.811Z,9.23
2023-01-17T11:34:15.770Z,9.20
2023-01-17T11:36:44.158Z,8.97
2023-01-17T11:39:27.565Z,9.27
2023-01-17T11:41:56.052Z,9.63
2023-01-17T11:44:27.604Z,8.53
2023-01-17T11:47:19.241Z,8.63
2023-01-17T11:49:48.874Z,8.60
2023-01-17T11:52:24.395Z,9.23
2023-01-17T11:54:55.268Z,8.27
2023-01-17T11:57:26.747Z,7.60
2023-01-17T12:00:04.950Z,8.10
2023-01-17T12:02:45.710Z,7.73
2023-01-17T12:05:34.250Z,8.23
2023-01-17T12:08:10.909Z,8.10
2023-01-17T12:10:49.497Z,8.73
2023-01-17T12:13:47.749Z,8.87
2023-01-17T12:16:31.217Z,8.40
2023-01-17T12:19:16.762Z,8.47
2023-01-17T12:21:57.096Z,7.57
2023-01-17T12:24:45.189Z,7.53
2023-01-17T12:27:20.790Z,7.57
2023-01-17T12:29:58.891Z,7.77
2023-01-17T12:32:50.455Z,7.77
2023-01-17T12:35:22.074Z,7.30
2023-01-17T12:38:04.425Z,8.00
2023-01-17T12:40:37.352Z,7.40
2023-01-17T12:43:14.442Z,7.63
2023-01-17T12:45:46.190Z,7.20
2023-01-17T12:48:19.211Z,7.60
2023-01-17T12:50:53.615Z,6.97
2023-01-17T12:53:28.169Z,7.10
2023-01-17T12:56:01.046Z,7.00
2023-01-17T12:58:35.147Z,7.90
2023-01-17T13:01:08.403Z,7.70
2023-01-17T13:03:47.466Z,7.70
2023-01-17T13:06:25.019Z,7.27
2023-01-17T13:08:57.589Z,7.10
2023-01-17T13:11:30.799Z,6.37
2023-01-17T13:13:59.924Z,6.80
2023-01-17T13:16:34.616Z,7.00
2023-01-17T13:19:12.532Z,7.90
2023-01-17T13:21:42.556Z,7.00
2023-01-17T13:24:30.171Z,6.77
2023-01-17T13:27:19.072Z,6.10
2023-01-17T13:30:00.703Z,6.40
2023-01-17T13:32:51.950Z,5.90
2023-01-17T13:35:42.059Z,6.03
2023-01-17T13:38:30.818Z,7.43
2023-01-17T13:41:08.793Z,6.50
2023-01-17T13:43:40.054Z,6.27
2023-01-17T13:46:08.541Z,6.40
2023-01-17T13:48:38.443Z,6.67
2023-01-17T13:51:08.950Z,7.00
2023-01-17T13:53:58.372Z,7.10
2023-01-17T13:56:44.084Z,6.60
2023-01-17T13:59:30.715Z,6.80
2023-01-17T14:01:59.046Z,7.00
2023-01-17T14:05:15.210Z,6.60
2023-01-17T14:07:48.648Z,6.77
2023-01-17T14:10:33.269Z,6.73
2023-01-17T14:13:02.242Z,6.83
2023-01-17T14:15:33.357Z,7.40
2023-01-17T14:18:03.188Z,7.50
2023-01-17T14:20:54.814Z,7.40
2023-01-17T14:23:30.282Z,7.67
2023-01-17T14:26:01.344Z,7.10
2023-01-17T14:28:33.566Z,7.73
2023-01-17T14:31:08.668Z,7.20
2023-01-17T14:33:39.704Z,8.00
2023-01-17T14:36:09.865Z,8.50
2023-01-17T14:38:43.794Z,8.00
2023-01-17T14:41:17.314Z,7.43
2023-01-17T14:43:46.427Z,7.90
2023-01-17T14:46:19.836Z,6.63
2023-01-17T14:48:47.923Z,7.37
2023-01-17T14:51:21.328Z,7.80
2023-01-17T14:53:58.440Z,7.77
2023-01-17T14:56:27.690Z,8.43
2023-01-17T14:59:06.877Z,7.33
2023-01-17T15:01:36.349Z,8.13
2023-01-17T15:04:04.867Z,8.87
2023-01-17T15:06:39.353Z,8.57
2023-01-17T15:09:13.441Z,8.67
2023-01-17T15:11:42.570Z,10.53
2023-01-17T15:14:18.459Z,12.10
2023-01-17T15:16:46.510Z,12.47
2023-01-17T15:19:15.914Z,11.87
2023-01-17T15:21:45.549Z,11.40
2023-01-17T15:24:20.734Z,11.03
2023-01-17T15:26:49.665Z,11.50
2023-01-17T15:29:24.647Z,11.13
2023-01-17T15:31:55.134Z,11.30
2023-01-17T15:34:28.123Z,11.23
2023-01-17T15:36:58.043Z,11.33
2023-01-17T15:39:30.309Z,10.50
2023-01-17T15:42:00.044Z,12.87
2023-01-17T15:44:47.057Z,17.00
2023-01-17T15:47:30.705Z,16.30
2023-01-17T15:49:59.926Z,14.33
2023-01-17T15:52:28.638Z,13.73
2023-01-17T15:55:12.512Z,17.13
2023-01-17T15:57:40.978Z,16.13
2023-01-17T16:00:21.926Z,16.43
2023-01-17T16:02:55.260Z,16.90
2023-01-17T16:05:38.709Z,16.50
2023-01-17T16:08:26.039Z,14.77
2023-01-17T16:10:59.172Z,14.03
2023-01-17T16:13:27.212Z,13.73
2023-01-17T16:15:55.260Z,13.90
2023-01-17T16:18:25.667Z,12.07
2023-01-17T16:20:59.984Z,11.23
2023-01-17T16:23:28.701Z,11.60
2023-01-17T16:25:58.091Z,11.30
2023-01-17T16:28:26.163Z,10.83
2023-01-17T16:30:54.635Z,10.43
2023-01-17T16:33:22.661Z,9.30
2023-01-17T16:35:51.236Z,10.17
2023-01-17T16:38:19.761Z,10.07
2023-01-17T16:40:48.604Z,10.33
2023-01-17T16:43:20.217Z,10.87
2023-01-17T16:45:50.411Z,11.40
2023-01-17T16:48:19.426Z,11.30
2023-01-17T16:50:50.698Z,11.00
2023-01-17T16:53:24.275Z,11.43
2023-01-17T16:55:57.582Z,12.03
2023-01-17T16:58:26.945Z,11.40
2023-01-17T17:00:56.598Z,11.43
2023-01-17T17:03:25.013Z,10.97
2023-01-17T17:05:57.493Z,10.87
2023-01-17T17:08:25.560Z,13.87
2023-01-17T17:10:53.617Z,16.00
2023-01-17T17:13:21.588Z,15.70
2023-01-17T17:15:51.082Z,14.50
2023-01-17T17:18:19.499Z,13.97
2023-01-17T17:20:49.562Z,13.13
2023-01-17T17:23:17.556Z,14.60
2023-01-17T17:25:45.565Z,20.33
2023-01-17T17:28:13.606Z,20.30
2023-01-17T17:30:41.584Z,21.70
2023-01-17T17:33:10.914Z,20.27
2023-01-17T17:35:38.905Z,19.03
2023-01-17T17:38:06.854Z,17.97
2023-01-17T17:40:35.592Z,16.20
2023-01-17T17:43:03.819Z,15.30
2023-01-17T17:45:31.783Z,15.23
2023-01-17T17:48:00.012Z,15.47
2023-01-17T17:50:29.385Z,15.97
2023-01-17T17:52:57.322Z,16.37
2023-01-17T17:55:25.373Z,18.23
2023-01-17T17:57:53.621Z,18.43
2023-01-17T18:00:23.128Z,18.93
2023-01-17T18:02:51.101Z,19.33
2023-01-17T18:05:19.098Z,25.33
2023-01-17T18:07:50.907Z,27.77
2023-01-17T18:10:19.222Z,29.03
2023-01-17T18:12:47.181Z,35.47
2023-01-17T18:15:15.308Z,33.60
2023-01-17T18:17:43.326Z,36.43
2023-01-17T18:20:12.281Z,35.77
2023-01-17T18:22:40.821Z,36.00
2023-01-17T18:25:12.665Z,35.53
2023-01-17T18:27:42.410Z,37.37
2023-01-17T18:30:12.487Z,37.90
2023-01-17T18:32:41.914Z,35.73
2023-01-17T18:35:10.653Z,39.07
2023-01-17T18:37:38.590Z,40.93
2023-01-17T18:40:08.111Z,39.43
2023-01-17T18:42:37.440Z,36.13
2023-01-17T18:45:06.309Z,37.60
2023-01-17T18:47:34.294Z,39.77
2023-01-17T18:50:02.282Z,41.13
2023-01-17T18:52:30.230Z,45.93
2023-01-17T18:54:58.192Z,42.93
2023-01-17T18:57:26.175Z,38.00
2023-01-17T18:59:55.481Z,37.87
2023-01-17T19:02:23.534Z,42.30
2023-01-17T19:04:51.570Z,42.40
2023-01-17T19:07:21.240Z,43.23
2023-01-17T19:09:49.204Z,46.03
2023-01-17T19:12:17.777Z,45.27
2023-01-17T19:14:46.592Z,51.10
2023-01-17T19:17:15.919Z,50.07
2023-01-17T19:19:43.871Z,52.87
2023-01-17T19:22:12.045Z,51.27
2023-01-17T19:24:40.770Z,49.63
2023-01-17T19:27:08.768Z,49.73
2023-01-17T19:29:37.080Z,49.20
2023-01-17T19:32:05.173Z,45.87
2023-01-17T19:34:34.635Z,48.80
2023-01-17T19:37:03.013Z,50.90
2023-01-17T19:39:31.538Z,57.70
2023-01-17T19:41:59.488Z,60.23
2023-01-17T19:44:27.552Z,59.53
2023-01-17T19:46:57.473Z,60.23
2023-01-17T19:49:25.452Z,57.33
2023-01-17T19:51:54.770Z,57.90
2023-01-17T19:54:23.391Z,54.90
2023-01-17T19:56:51.395Z,54.77
2023-01-17T19:59:20.104Z,55.13
2023-01-17T20:01:49.059Z,54.80
2023-01-17T20:04:18.067Z,55.63
2023-01-17T20:06:47.344Z,58.37
2023-01-17T20:09:16.696Z,56.53
2023-01-17T20:11:45.549Z,59.03
2023-01-17T20:14:15.194Z,62.53
2023-01-17T20:16:43.588Z,61.30
2023-01-17T20:19:11.677Z,61.50
2023-01-17T20:21:39.696Z,59.43
2023-01-17T20:24:08.923Z,60.43
2023-01-17T20:26:38.276Z,59.50
2023-01-17T20:29:10.155Z,64.57
2023-01-17T20:31:39.324Z,61.10
2023-01-17T20:34:08.116Z,63.10
2023-01-17T20:36:36.996Z,63.30
2023-01-17T20:39:06.501Z,58.80
2023-01-17T20:41:35.938Z,59.27
2023-01-17T20:44:06.763Z,56.03
2023-01-17T20:46:40.409Z,56.13
2023-01-17T20:49:13.377Z,55.50
2023-01-17T20:51:41.837Z,56.53
2023-01-17T20:54:12.973Z,49.33
2023-01-17T20:56:41.548Z,44.70
2023-01-17T20:59:14.497Z,42.10
2023-01-17T21:01:43.687Z,39.97
2023-01-17T21:04:12.970Z,43.83
2023-01-17T21:06:42.873Z,41.33
2023-01-17T21:09:12.963Z,40.60
2023-01-17T21:11:41.049Z,37.43
2023-01-17T21:14:10.643Z,36.03
2023-01-17T21:16:38.701Z,38.47
2023-01-17T21:19:09.219Z,36.87
2023-01-17T21:21:37.214Z,36.07
2023-01-17T21:24:06.018Z,38.17
2023-01-17T21:26:34.105Z,35.53
2023-01-17T21:29:02.231Z,34.50
2023-01-17T21:31:34.755Z,36.20
2023-01-17T21:34:04.962Z,36.17
2023-01-17T21:36:34.489Z,35.57
2023-01-17T21:39:05.234Z,35.80
2023-01-17T21:41:35.513Z,35.00
2023-01-17T21:44:05.110Z,34.33
2023-01-17T21:46:37.463Z,32.67
2023-01-17T21:49:05.644Z,32.37
2023-01-17T21:52:00.616Z,32.37
2023-01-17T21:54:47.702Z,33.50
2023-01-17T21:57:35.036Z,35.27
2023-01-17T22:00:03.639Z,33.83
2023-01-17T22:02:33.052Z,37.03
2023-01-17T22:05:01.038Z,36.53
2023-01-17T22:07:29.218Z,37.10
2023-01-17T22:09:57.775Z,37.50
2023-01-17T22:12:25.911Z,40.20
2023-01-17T22:14:54.444Z,38.83
2023-01-17T22:17:22.427Z,39.77
2023-01-17T22:19:51.744Z,40.23
2023-01-17T22:22:19.783Z,39.17
2023-01-17T22:24:47.780Z,37.30
2023-01-17T22:27:15.810Z,36.30
2023-01-17T22:29:43.764Z,37.03
2023-01-17T22:32:11.792Z,37.07
2023-01-17T22:34:39.741Z,37.90
2023-01-17T22:37:11.057Z,38.53
2023-01-17T22:39:39.572Z,39.40
2023-01-17T22:42:08.358Z,38.83
2023-01-17T22:44:36.358Z,40.23
2023-01-17T22:47:04.322Z,37.63
2023-01-17T22:49:32.357Z,36.93
2023-01-17T22:52:00.313Z,37.83
2023-01-17T22:54:29.705Z,37.13
2023-01-17T22:56:58.801Z,36.50
2023-01-17T22:59:26.800Z,38.17
2023-01-17T23:01:55.016Z,35.30
2023-01-17T23:04:23.003Z,34.97
2023-01-17T23:06:50.983Z,33.67
2023-01-17T23:09:19.054Z,33.00
2023-01-17T23:11:52.050Z,32.77
2023-01-17T23:14:21.708Z,31.93
2023-01-17T23:17:11.836Z,30.73
2023-01-17T23:19:42.100Z,29.30
2023-01-17T23:22:19.291Z,31.23
2023-01-17T23:24:52.043Z,30.00
2023-01-17T23:27:42.103Z,29.80
2023-01-17T23:30:13.045Z,28.10
2023-01-17T23:32:44.619Z,29.17
2023-01-17T23:35:12.884Z,27.90
2023-01-17T23:37:58.661Z,30.10
2023-01-17T23:40:26.657Z,28.87
2023-01-17T23:43:13.380Z,29.33
2023-01-17T23:45:41.403Z,29.53
2023-01-17T23:48:10.755Z,25.37
2023-01-17T23:50:39.817Z,25.50
2023-01-17T23:53:08.278Z,26.77
2023-01-17T23:55:37.561Z,26.77
2023-01-17T23:58:07.886Z,26.23
